sensor_id;sensor_type;location;lat;lon;timestamp;temperature;humidity
2571;DHT22;1295;51.130;6.732;2022-08-01T00:02:06;25.00;99.90
2571;DHT22;1295;51.130;6.732;2022-08-01T00:04:32;25.00;99.90
2571;DHT22;1295;51.130;6.732;2022-08-01T00:06:57;25.00;99.90
2571;DHT22;1295;51.130;6.732;2022-08-01T00:09:23;25.00;99.90
2571;DHT22;1295;51.130;6.732;2022-08-01T00:11:49;25.00;99.90
2571;DHT22;1295;51.130;6.732;2022-08-01T00:14:14;25.00;99.90
2571;DHT22;1295;51.130;6.732;2022-08-01T00:16:40;25.00;99.90
2571;DHT22;1295;51.130;6.732;2022-08-01T00:19:06;24.90;99.90
2571;DHT22;1295;51.130;6.732;2022-08-01T00:21:31;24.90;99.90
2571;DHT22;1295;51.130;6.732;2022-08-01T00:23:57;24.90;99.90
2571;DHT22;1295;51.130;6.732;2022-08-01T00:26:23;24.90;99.90
2571;DHT22;1295;51.130;6.732;2022-08-01T00:28:48;24.80;99.90
2571;DHT22;1295;51.130;6.732;2022-08-01T00:31:14;24.80;99.90
2571;DHT22;1295;51.130;6.732;2022-08-01T00:33:40;24.90;99.90
2571;DHT22;1295;51.130;6.732;2022-08-01T00:36:05;24.90;99.90
2571;DHT22;1295;51.130;6.732;2022-08-01T00:38:31;24.50;99.90
2571;DHT22;1295;51.130;6.732;2022-08-01T00:40:57;24.70;99.90
2571;DHT22;1295;51.130;6.732;2022-08-01T00:43:23;24.70;99.90
2571;DHT22;1295;51.130;6.732;2022-08-01T00:45:49;24.60;99.90
2571;DHT22;1295;51.130;6.732;2022-08-01T00:48:15;24.80;99.90
2571;DHT22;1295;51.130;6.732;2022-08-01T00:50:41;24.80;99.90
2571;DHT22;1295;51.130;6.732;2022-08-01T00:53:06;24.80;99.90
2571;DHT22;1295;51.130;6.732;2022-08-01T00:55:32;24.70;99.90
2571;DHT22;1295;51.130;6.732;2022-08-01T00:57:58;24.30;99.90
2571;DHT22;1295;51.130;6.732;2022-08-01T01:00:24;24.60;99.90
2571;DHT22;1295;51.130;6.732;2022-08-01T01:02:50;24.60;99.90
2571;DHT22;1295;51.130;6.732;2022-08-01T01:05:15;24.50;99.90
2571;DHT22;1295;51.130;6.732;2022-08-01T01:07:56;24.50;99.90
2571;DHT22;1295;51.130;6.732;2022-08-01T01:12:56;24.50;99.90
2571;DHT22;1295;51.130;6.732;2022-08-01T01:15:22;24.50;99.90
2571;DHT22;1295;51.130;6.732;2022-08-01T01:18:03;24.40;99.90
2571;DHT22;1295;51.130;6.732;2022-08-01T01:20:26;24.60;99.90
2571;DHT22;1295;51.130;6.732;2022-08-01T01:23:10;24.60;99.90
2571;DHT22;1295;51.130;6.732;2022-08-01T01:26:10;24.30;99.90
2571;DHT22;1295;51.130;6.732;2022-08-01T01:31:00;24.60;99.90
2571;DHT22;1295;51.130;6.732;2022-08-01T01:33:27;24.50;99.90
2571;DHT22;1295;51.130;6.732;2022-08-01T01:35:53;24.50;99.90
2571;DHT22;1295;51.130;6.732;2022-08-01T01:38:21;24.40;99.90
2571;DHT22;1295;51.130;6.732;2022-08-01T01:40:46;24.40;99.90
2571;DHT22;1295;51.130;6.732;2022-08-01T01:43:11;24.40;99.90
2571;DHT22;1295;51.130;6.732;2022-08-01T01:45:39;24.50;99.90
2571;DHT22;1295;51.130;6.732;2022-08-01T01:48:04;24.50;99.90
2571;DHT22;1295;51.130;6.732;2022-08-01T01:50:30;24.20;99.90
2571;DHT22;1295;51.130;6.732;2022-08-01T01:52:55;24.30;99.90
2571;DHT22;1295;51.130;6.732;2022-08-01T01:55:21;24.20;99.90
2571;DHT22;1295;51.130;6.732;2022-08-01T01:57:47;24.20;99.90
2571;DHT22;1295;51.130;6.732;2022-08-01T02:00:14;24.30;99.90
2571;DHT22;1295;51.130;6.732;2022-08-01T02:02:41;24.20;99.90
2571;DHT22;1295;51.130;6.732;2022-08-01T02:05:08;24.10;99.90
2571;DHT22;1295;51.130;6.732;2022-08-01T02:07:33;24.10;99.90
2571;DHT22;1295;51.130;6.732;2022-08-01T02:09:59;24.20;99.90
2571;DHT22;1295;51.130;6.732;2022-08-01T02:12:25;24.20;99.90
2571;DHT22;1295;51.130;6.732;2022-08-01T02:14:52;24.20;99.90
2571;DHT22;1295;51.130;6.732;2022-08-01T02:17:17;24.00;99.90
2571;DHT22;1295;51.130;6.732;2022-08-01T02:19:42;24.10;99.90
2571;DHT22;1295;51.130;6.732;2022-08-01T02:22:12;24.10;99.90
2571;DHT22;1295;51.130;6.732;2022-08-01T02:24:58;24.30;99.90
2571;DHT22;1295;51.130;6.732;2022-08-01T02:27:22;24.40;99.90
2571;DHT22;1295;51.130;6.732;2022-08-01T02:29:50;24.30;99.90
2571;DHT22;1295;51.130;6.732;2022-08-01T02:32:14;24.30;99.90
2571;DHT22;1295;51.130;6.732;2022-08-01T02:34:40;24.40;99.90
2571;DHT22;1295;51.130;6.732;2022-08-01T02:37:05;24.20;99.90
2571;DHT22;1295;51.130;6.732;2022-08-01T02:39:31;24.30;99.90
2571;DHT22;1295;51.130;6.732;2022-08-01T02:41:59;24.30;99.90
2571;DHT22;1295;51.130;6.732;2022-08-01T02:44:24;24.30;99.90
2571;DHT22;1295;51.130;6.732;2022-08-01T02:46:50;24.30;99.90
2571;DHT22;1295;51.130;6.732;2022-08-01T02:49:15;24.20;99.90
2571;DHT22;1295;51.130;6.732;2022-08-01T02:51:40;24.30;99.90
2571;DHT22;1295;51.130;6.732;2022-08-01T02:54:07;24.30;99.90
2571;DHT22;1295;51.130;6.732;2022-08-01T02:56:32;24.30;99.90
2571;DHT22;1295;51.130;6.732;2022-08-01T02:59:02;24.30;99.90
2571;DHT22;1295;51.130;6.732;2022-08-01T03:01:26;24.30;99.90
2571;DHT22;1295;51.130;6.732;2022-08-01T03:03:52;24.10;99.90
2571;DHT22;1295;51.130;6.732;2022-08-01T03:06:23;24.20;99.90
2571;DHT22;1295;51.130;6.732;2022-08-01T03:08:48;24.30;99.90
2571;DHT22;1295;51.130;6.732;2022-08-01T03:11:14;24.20;99.90
2571;DHT22;1295;51.130;6.732;2022-08-01T03:13:40;24.10;99.90
2571;DHT22;1295;51.130;6.732;2022-08-01T03:16:05;24.20;99.90
2571;DHT22;1295;51.130;6.732;2022-08-01T03:18:31;24.20;99.90
2571;DHT22;1295;51.130;6.732;2022-08-01T03:20:57;24.20;99.90
2571;DHT22;1295;51.130;6.732;2022-08-01T03:23:22;24.00;99.90
2571;DHT22;1295;51.130;6.732;2022-08-01T03:25:48;23.90;99.90
2571;DHT22;1295;51.130;6.732;2022-08-01T03:28:14;24.00;99.90
2571;DHT22;1295;51.130;6.732;2022-08-01T03:30:39;24.10;99.90
2571;DHT22;1295;51.130;6.732;2022-08-01T03:33:05;24.20;99.90
2571;DHT22;1295;51.130;6.732;2022-08-01T03:35:33;24.20;99.90
2571;DHT22;1295;51.130;6.732;2022-08-01T03:37:56;24.20;99.90
2571;DHT22;1295;51.130;6.732;2022-08-01T03:40:24;24.20;99.90
2571;DHT22;1295;51.130;6.732;2022-08-01T03:42:50;24.10;99.90
2571;DHT22;1295;51.130;6.732;2022-08-01T03:45:25;24.10;99.90
2571;DHT22;1295;51.130;6.732;2022-08-01T03:47:49;24.10;99.90
2571;DHT22;1295;51.130;6.732;2022-08-01T03:50:14;24.10;99.90
2571;DHT22;1295;51.130;6.732;2022-08-01T03:52:41;24.10;99.90
2571;DHT22;1295;51.130;6.732;2022-08-01T03:55:07;24.00;99.90
2571;DHT22;1295;51.130;6.732;2022-08-01T03:57:33;24.00;99.90
2571;DHT22;1295;51.130;6.732;2022-08-01T03:59:59;23.90;99.90
2571;DHT22;1295;51.130;6.732;2022-08-01T04:02:25;24.00;99.90
2571;DHT22;1295;51.130;6.732;2022-08-01T04:04:51;24.10;99.90
2571;DHT22;1295;51.130;6.732;2022-08-01T04:07:37;24.00;99.90
2571;DHT22;1295;51.130;6.732;2022-08-01T04:10:03;24.00;99.90
2571;DHT22;1295;51.130;6.732;2022-08-01T04:12:29;24.00;99.90
2571;DHT22;1295;51.130;6.732;2022-08-01T04:14:54;24.10;99.90
2571;DHT22;1295;51.130;6.732;2022-08-01T04:17:20;24.00;99.90
2571;DHT22;1295;51.130;6.732;2022-08-01T04:19:46;24.00;99.90
2571;DHT22;1295;51.130;6.732;2022-08-01T04:22:13;23.90;99.90
2571;DHT22;1295;51.130;6.732;2022-08-01T04:24:38;24.00;99.90
2571;DHT22;1295;51.130;6.732;2022-08-01T04:27:04;24.00;99.90
2571;DHT22;1295;51.130;6.732;2022-08-01T04:29:30;24.00;99.90
2571;DHT22;1295;51.130;6.732;2022-08-01T04:31:56;24.00;99.90
2571;DHT22;1295;51.130;6.732;2022-08-01T04:34:22;24.00;99.90
2571;DHT22;1295;51.130;6.732;2022-08-01T04:36:48;23.90;99.90
2571;DHT22;1295;51.130;6.732;2022-08-01T04:39:13;24.00;99.90
2571;DHT22;1295;51.130;6.732;2022-08-01T04:41:39;24.00;99.90
2571;DHT22;1295;51.130;6.732;2022-08-01T04:44:05;24.00;99.90
2571;DHT22;1295;51.130;6.732;2022-08-01T04:46:31;24.00;99.90
2571;DHT22;1295;51.130;6.732;2022-08-01T04:48:57;23.90;99.90
2571;DHT22;1295;51.130;6.732;2022-08-01T04:51:23;23.90;99.90
2571;DHT22;1295;51.130;6.732;2022-08-01T04:53:48;23.90;99.90
2571;DHT22;1295;51.130;6.732;2022-08-01T04:56:14;23.90;99.90
2571;DHT22;1295;51.130;6.732;2022-08-01T04:58:40;23.90;99.90
2571;DHT22;1295;51.130;6.732;2022-08-01T05:01:06;23.90;99.90
2571;DHT22;1295;51.130;6.732;2022-08-01T05:03:31;23.90;99.90
2571;DHT22;1295;51.130;6.732;2022-08-01T05:05:58;23.90;99.90
2571;DHT22;1295;51.130;6.732;2022-08-01T05:08:24;23.90;99.90
2571;DHT22;1295;51.130;6.732;2022-08-01T05:10:50;23.90;99.90
2571;DHT22;1295;51.130;6.732;2022-08-01T05:13:15;23.80;99.90
2571;DHT22;1295;51.130;6.732;2022-08-01T05:15:41;23.90;99.90
2571;DHT22;1295;51.130;6.732;2022-08-01T05:18:07;23.80;99.90
2571;DHT22;1295;51.130;6.732;2022-08-01T05:20:32;23.90;99.90
2571;DHT22;1295;51.130;6.732;2022-08-01T05:22:58;23.80;99.90
2571;DHT22;1295;51.130;6.732;2022-08-01T05:25:24;23.80;99.90
2571;DHT22;1295;51.130;6.732;2022-08-01T05:27:50;23.80;99.90
2571;DHT22;1295;51.130;6.732;2022-08-01T05:30:15;23.80;99.90
2571;DHT22;1295;51.130;6.732;2022-08-01T05:32:41;23.80;99.90
2571;DHT22;1295;51.130;6.732;2022-08-01T05:35:07;23.80;99.90
2571;DHT22;1295;51.130;6.732;2022-08-01T05:37:34;23.80;99.90
2571;DHT22;1295;51.130;6.732;2022-08-01T05:40:00;23.80;99.90
2571;DHT22;1295;51.130;6.732;2022-08-01T05:42:25;23.80;99.90
2571;DHT22;1295;51.130;6.732;2022-08-01T05:44:51;23.80;99.90
2571;DHT22;1295;51.130;6.732;2022-08-01T05:47:17;23.80;99.90
2571;DHT22;1295;51.130;6.732;2022-08-01T05:49:43;23.80;99.90
2571;DHT22;1295;51.130;6.732;2022-08-01T05:52:09;23.80;99.90
2571;DHT22;1295;51.130;6.732;2022-08-01T05:54:35;23.70;99.90
2571;DHT22;1295;51.130;6.732;2022-08-01T05:57:01;23.80;99.90
2571;DHT22;1295;51.130;6.732;2022-08-01T05:59:28;23.70;99.90
2571;DHT22;1295;51.130;6.732;2022-08-01T06:01:53;23.60;99.90
2571;DHT22;1295;51.130;6.732;2022-08-01T06:04:18;23.70;99.90
2571;DHT22;1295;51.130;6.732;2022-08-01T06:06:44;23.70;99.90
2571;DHT22;1295;51.130;6.732;2022-08-01T06:09:11;23.70;99.90
2571;DHT22;1295;51.130;6.732;2022-08-01T06:11:36;23.70;99.90
2571;DHT22;1295;51.130;6.732;2022-08-01T06:14:02;23.60;99.90
2571;DHT22;1295;51.130;6.732;2022-08-01T06:16:28;23.70;99.90
2571;DHT22;1295;51.130;6.732;2022-08-01T06:18:54;23.60;99.90
2571;DHT22;1295;51.130;6.732;2022-08-01T06:21:20;23.60;99.90
2571;DHT22;1295;51.130;6.732;2022-08-01T06:23:45;23.60;99.90
2571;DHT22;1295;51.130;6.732;2022-08-01T06:26:11;23.70;99.90
2571;DHT22;1295;51.130;6.732;2022-08-01T06:28:37;23.60;99.90
2571;DHT22;1295;51.130;6.732;2022-08-01T06:31:03;23.60;99.90
2571;DHT22;1295;51.130;6.732;2022-08-01T06:33:29;23.60;99.90
2571;DHT22;1295;51.130;6.732;2022-08-01T06:35:54;23.60;99.90
2571;DHT22;1295;51.130;6.732;2022-08-01T06:38:21;23.60;99.90
2571;DHT22;1295;51.130;6.732;2022-08-01T06:40:48;23.60;99.90
2571;DHT22;1295;51.130;6.732;2022-08-01T06:43:13;23.60;99.90
2571;DHT22;1295;51.130;6.732;2022-08-01T06:45:40;23.40;99.90
2571;DHT22;1295;51.130;6.732;2022-08-01T06:48:05;23.40;99.90
2571;DHT22;1295;51.130;6.732;2022-08-01T06:50:32;23.60;99.90
2571;DHT22;1295;51.130;6.732;2022-08-01T06:52:57;23.60;99.90
2571;DHT22;1295;51.130;6.732;2022-08-01T06:55:24;23.50;99.90
2571;DHT22;1295;51.130;6.732;2022-08-01T06:57:50;23.50;99.90
2571;DHT22;1295;51.130;6.732;2022-08-01T07:00:16;23.60;99.90
2571;DHT22;1295;51.130;6.732;2022-08-01T07:02:42;23.60;99.90
2571;DHT22;1295;51.130;6.732;2022-08-01T07:05:08;23.60;99.90
2571;DHT22;1295;51.130;6.732;2022-08-01T07:07:35;23.60;99.90
2571;DHT22;1295;51.130;6.732;2022-08-01T07:10:00;23.60;99.90
2571;DHT22;1295;51.130;6.732;2022-08-01T07:12:26;23.60;99.90
2571;DHT22;1295;51.130;6.732;2022-08-01T07:14:52;23.60;99.90
2571;DHT22;1295;51.130;6.732;2022-08-01T07:17:17;23.60;99.90
2571;DHT22;1295;51.130;6.732;2022-08-01T07:19:43;23.60;99.90
2571;DHT22;1295;51.130;6.732;2022-08-01T07:22:09;23.60;99.90
2571;DHT22;1295;51.130;6.732;2022-08-01T07:24:34;23.60;99.90
2571;DHT22;1295;51.130;6.732;2022-08-01T07:27:01;23.60;99.90
2571;DHT22;1295;51.130;6.732;2022-08-01T07:29:27;23.50;99.90
2571;DHT22;1295;51.130;6.732;2022-08-01T07:31:53;23.50;99.90
2571;DHT22;1295;51.130;6.732;2022-08-01T07:34:18;23.50;99.90
2571;DHT22;1295;51.130;6.732;2022-08-01T07:36:44;23.40;99.90
2571;DHT22;1295;51.130;6.732;2022-08-01T07:39:09;23.60;99.90
2571;DHT22;1295;51.130;6.732;2022-08-01T07:41:36;23.60;99.90
2571;DHT22;1295;51.130;6.732;2022-08-01T07:44:02;23.60;99.90
2571;DHT22;1295;51.130;6.732;2022-08-01T07:46:27;23.70;99.90
2571;DHT22;1295;51.130;6.732;2022-08-01T07:48:53;23.80;99.90
2571;DHT22;1295;51.130;6.732;2022-08-01T07:51:19;23.80;99.90
2571;DHT22;1295;51.130;6.732;2022-08-01T07:53:44;23.80;99.90
2571;DHT22;1295;51.130;6.732;2022-08-01T07:56:10;23.90;99.90
2571;DHT22;1295;51.130;6.732;2022-08-01T07:58:36;23.80;99.90
2571;DHT22;1295;51.130;6.732;2022-08-01T08:01:02;23.70;99.90
2571;DHT22;1295;51.130;6.732;2022-08-01T08:03:27;23.70;99.90
2571;DHT22;1295;51.130;6.732;2022-08-01T08:05:53;23.70;99.90
2571;DHT22;1295;51.130;6.732;2022-08-01T08:08:19;23.70;99.90
2571;DHT22;1295;51.130;6.732;2022-08-01T08:10:44;23.70;99.90
2571;DHT22;1295;51.130;6.732;2022-08-01T08:13:10;23.70;99.90
2571;DHT22;1295;51.130;6.732;2022-08-01T08:15:36;23.60;99.90
2571;DHT22;1295;51.130;6.732;2022-08-01T08:18:02;23.80;99.90
2571;DHT22;1295;51.130;6.732;2022-08-01T08:20:27;23.90;99.90
2571;DHT22;1295;51.130;6.732;2022-08-01T08:22:53;23.90;99.90
2571;DHT22;1295;51.130;6.732;2022-08-01T08:25:24;23.90;99.90
2571;DHT22;1295;51.130;6.732;2022-08-01T08:27:50;24.00;99.90
2571;DHT22;1295;51.130;6.732;2022-08-01T08:30:16;24.20;99.90
2571;DHT22;1295;51.130;6.732;2022-08-01T08:32:42;24.20;99.90
2571;DHT22;1295;51.130;6.732;2022-08-01T08:35:08;24.30;99.90
2571;DHT22;1295;51.130;6.732;2022-08-01T08:37:34;24.30;99.90
2571;DHT22;1295;51.130;6.732;2022-08-01T08:40:00;24.30;99.90
2571;DHT22;1295;51.130;6.732;2022-08-01T08:42:25;24.20;99.90
2571;DHT22;1295;51.130;6.732;2022-08-01T08:44:51;24.10;99.90
2571;DHT22;1295;51.130;6.732;2022-08-01T08:47:17;24.20;99.90
2571;DHT22;1295;51.130;6.732;2022-08-01T08:49:43;24.20;99.90
2571;DHT22;1295;51.130;6.732;2022-08-01T08:52:08;24.30;99.90
2571;DHT22;1295;51.130;6.732;2022-08-01T08:54:34;24.30;99.90
2571;DHT22;1295;51.130;6.732;2022-08-01T08:57:00;24.00;99.90
2571;DHT22;1295;51.130;6.732;2022-08-01T08:59:26;24.00;99.90
2571;DHT22;1295;51.130;6.732;2022-08-01T09:01:52;24.00;99.90
2571;DHT22;1295;51.130;6.732;2022-08-01T09:04:17;24.30;99.90
2571;DHT22;1295;51.130;6.732;2022-08-01T09:06:43;24.30;99.90
2571;DHT22;1295;51.130;6.732;2022-08-01T09:09:09;24.20;99.90
2571;DHT22;1295;51.130;6.732;2022-08-01T09:11:34;24.00;99.90
2571;DHT22;1295;51.130;6.732;2022-08-01T09:14:11;24.00;99.90
2571;DHT22;1295;51.130;6.732;2022-08-01T09:16:37;24.10;99.90
2571;DHT22;1295;51.130;6.732;2022-08-01T09:19:14;24.20;99.90
2571;DHT22;1295;51.130;6.732;2022-08-01T09:21:39;24.20;99.90
2571;DHT22;1295;51.130;6.732;2022-08-01T09:24:13;24.20;99.90
2571;DHT22;1295;51.130;6.732;2022-08-01T09:26:32;24.10;99.90
2571;DHT22;1295;51.130;6.732;2022-08-01T09:28:57;24.30;99.90
2571;DHT22;1295;51.130;6.732;2022-08-01T09:31:23;24.30;99.90
2571;DHT22;1295;51.130;6.732;2022-08-01T09:33:56;24.80;99.90
2571;DHT22;1295;51.130;6.732;2022-08-01T09:36:22;24.70;99.90
2571;DHT22;1295;51.130;6.732;2022-08-01T09:38:47;24.60;99.90
2571;DHT22;1295;51.130;6.732;2022-08-01T09:41:13;24.60;99.90
2571;DHT22;1295;51.130;6.732;2022-08-01T09:43:39;24.50;99.90
2571;DHT22;1295;51.130;6.732;2022-08-01T09:46:08;24.50;99.90
2571;DHT22;1295;51.130;6.732;2022-08-01T09:48:30;24.40;99.90
2571;DHT22;1295;51.130;6.732;2022-08-01T09:50:57;24.40;99.90
2571;DHT22;1295;51.130;6.732;2022-08-01T09:53:22;24.60;99.90
2571;DHT22;1295;51.130;6.732;2022-08-01T09:55:47;24.50;99.90
2571;DHT22;1295;51.130;6.732;2022-08-01T09:58:13;24.30;99.90
2571;DHT22;1295;51.130;6.732;2022-08-01T10:00:39;24.60;99.90
2571;DHT22;1295;51.130;6.732;2022-08-01T10:03:18;24.60;99.90
2571;DHT22;1295;51.130;6.732;2022-08-01T10:05:40;24.70;99.90
2571;DHT22;1295;51.130;6.732;2022-08-01T10:08:06;24.70;99.90
2571;DHT22;1295;51.130;6.732;2022-08-01T10:10:31;24.90;99.90
2571;DHT22;1295;51.130;6.732;2022-08-01T10:12:58;24.70;99.90
2571;DHT22;1295;51.130;6.732;2022-08-01T10:15:23;24.60;99.90
2571;DHT22;1295;51.130;6.732;2022-08-01T10:17:55;24.80;99.90
2571;DHT22;1295;51.130;6.732;2022-08-01T10:20:20;25.10;99.90
2571;DHT22;1295;51.130;6.732;2022-08-01T10:22:45;25.10;99.90
2571;DHT22;1295;51.130;6.732;2022-08-01T10:25:11;24.80;99.90
2571;DHT22;1295;51.130;6.732;2022-08-01T10:27:37;24.80;99.90
2571;DHT22;1295;51.130;6.732;2022-08-01T10:30:03;24.70;99.90
2571;DHT22;1295;51.130;6.732;2022-08-01T10:32:30;24.80;99.90
2571;DHT22;1295;51.130;6.732;2022-08-01T10:34:56;24.60;99.90
2571;DHT22;1295;51.130;6.732;2022-08-01T10:37:22;24.50;99.90
2571;DHT22;1295;51.130;6.732;2022-08-01T10:39:48;24.50;99.90
2571;DHT22;1295;51.130;6.732;2022-08-01T10:42:13;24.70;99.90
2571;DHT22;1295;51.130;6.732;2022-08-01T10:44:39;24.80;99.90
2571;DHT22;1295;51.130;6.732;2022-08-01T10:47:11;25.50;99.90
2571;DHT22;1295;51.130;6.732;2022-08-01T10:49:36;25.40;99.90
2571;DHT22;1295;51.130;6.732;2022-08-01T10:52:01;25.30;99.90
2571;DHT22;1295;51.130;6.732;2022-08-01T10:54:26;25.20;99.90
2571;DHT22;1295;51.130;6.732;2022-08-01T10:56:52;25.00;99.90
2571;DHT22;1295;51.130;6.732;2022-08-01T10:59:22;24.90;99.90
2571;DHT22;1295;51.130;6.732;2022-08-01T11:04:19;24.80;99.90
2571;DHT22;1295;51.130;6.732;2022-08-01T11:06:52;24.80;99.90
2571;DHT22;1295;51.130;6.732;2022-08-01T11:09:19;24.70;99.90
2571;DHT22;1295;51.130;6.732;2022-08-01T11:14:19;24.70;99.90
2571;DHT22;1295;51.130;6.732;2022-08-01T11:16:45;24.90;99.90
2571;DHT22;1295;51.130;6.732;2022-08-01T11:19:12;25.00;99.90
2571;DHT22;1295;51.130;6.732;2022-08-01T11:24:15;25.10;99.90
2571;DHT22;1295;51.130;6.732;2022-08-01T11:26:41;25.20;99.90
2571;DHT22;1295;51.130;6.732;2022-08-01T11:29:11;25.40;99.90
2571;DHT22;1295;51.130;6.732;2022-08-01T11:31:35;25.40;99.90
2571;DHT22;1295;51.130;6.732;2022-08-01T11:34:01;25.60;99.90
2571;DHT22;1295;51.130;6.732;2022-08-01T11:36:27;25.30;99.90
2571;DHT22;1295;51.130;6.732;2022-08-01T11:39:12;25.20;99.90
2571;DHT22;1295;51.130;6.732;2022-08-01T11:41:37;25.30;99.90
2571;DHT22;1295;51.130;6.732;2022-08-01T11:44:06;25.40;99.90
2571;DHT22;1295;51.130;6.732;2022-08-01T11:49:22;25.40;99.90
2571;DHT22;1295;51.130;6.732;2022-08-01T11:51:47;25.40;99.90
2571;DHT22;1295;51.130;6.732;2022-08-01T11:54:13;25.40;99.90
2571;DHT22;1295;51.130;6.732;2022-08-01T11:56:39;25.40;99.90
2571;DHT22;1295;51.130;6.732;2022-08-01T11:59:05;25.70;99.90
2571;DHT22;1295;51.130;6.732;2022-08-01T12:01:31;25.50;99.90
2571;DHT22;1295;51.130;6.732;2022-08-01T12:03:56;25.40;99.90
2571;DHT22;1295;51.130;6.732;2022-08-01T12:06:27;25.40;99.90
2571;DHT22;1295;51.130;6.732;2022-08-01T12:08:51;25.80;99.90
2571;DHT22;1295;51.130;6.732;2022-08-01T12:11:17;26.00;99.90
2571;DHT22;1295;51.130;6.732;2022-08-01T12:13:43;26.00;99.90
2571;DHT22;1295;51.130;6.732;2022-08-01T12:16:09;25.60;99.90
2571;DHT22;1295;51.130;6.732;2022-08-01T12:18:41;26.10;99.90
2571;DHT22;1295;51.130;6.732;2022-08-01T12:21:06;26.20;99.90
2571;DHT22;1295;51.130;6.732;2022-08-01T12:23:32;26.30;99.90
2571;DHT22;1295;51.130;6.732;2022-08-01T12:25:58;25.90;99.90
2571;DHT22;1295;51.130;6.732;2022-08-01T12:28:24;25.90;99.90
2571;DHT22;1295;51.130;6.732;2022-08-01T12:30:50;26.00;99.90
2571;DHT22;1295;51.130;6.732;2022-08-01T12:33:17;26.30;99.90
2571;DHT22;1295;51.130;6.732;2022-08-01T12:35:42;26.30;99.90
2571;DHT22;1295;51.130;6.732;2022-08-01T12:38:14;26.00;99.90
2571;DHT22;1295;51.130;6.732;2022-08-01T12:40:41;26.00;99.90
2571;DHT22;1295;51.130;6.732;2022-08-01T12:43:07;25.90;99.90
2571;DHT22;1295;51.130;6.732;2022-08-01T12:45:36;25.80;99.90
2571;DHT22;1295;51.130;6.732;2022-08-01T12:48:02;25.80;99.90
2571;DHT22;1295;51.130;6.732;2022-08-01T12:50:28;25.80;99.90
2571;DHT22;1295;51.130;6.732;2022-08-01T12:52:53;25.80;99.90
2571;DHT22;1295;51.130;6.732;2022-08-01T12:55:20;25.60;99.90
2571;DHT22;1295;51.130;6.732;2022-08-01T12:57:48;25.70;99.90
2571;DHT22;1295;51.130;6.732;2022-08-01T13:00:17;25.70;99.90
2571;DHT22;1295;51.130;6.732;2022-08-01T13:02:41;25.60;99.90
2571;DHT22;1295;51.130;6.732;2022-08-01T13:05:08;25.80;99.90
2571;DHT22;1295;51.130;6.732;2022-08-01T13:07:39;25.80;99.90
2571;DHT22;1295;51.130;6.732;2022-08-01T13:10:04;25.90;99.90
2571;DHT22;1295;51.130;6.732;2022-08-01T13:12:30;25.90;99.90
2571;DHT22;1295;51.130;6.732;2022-08-01T13:14:56;25.90;99.90
2571;DHT22;1295;51.130;6.732;2022-08-01T13:17:39;25.90;99.90
2571;DHT22;1295;51.130;6.732;2022-08-01T13:20:05;26.10;99.90
2571;DHT22;1295;51.130;6.732;2022-08-01T13:22:34;26.20;99.90
2571;DHT22;1295;51.130;6.732;2022-08-01T13:25:09;26.00;99.90
2571;DHT22;1295;51.130;6.732;2022-08-01T13:27:34;25.70;99.90
2571;DHT22;1295;51.130;6.732;2022-08-01T13:30:09;25.70;99.90
2571;DHT22;1295;51.130;6.732;2022-08-01T13:32:26;25.70;99.90
2571;DHT22;1295;51.130;6.732;2022-08-01T13:35:00;25.80;99.90
2571;DHT22;1295;51.130;6.732;2022-08-01T13:37:17;25.90;99.90
2571;DHT22;1295;51.130;6.732;2022-08-01T13:39:44;25.80;99.90
2571;DHT22;1295;51.130;6.732;2022-08-01T13:42:11;25.80;99.90
2571;DHT22;1295;51.130;6.732;2022-08-01T13:44:36;25.80;99.90
2571;DHT22;1295;51.130;6.732;2022-08-01T13:47:03;25.70;99.90
2571;DHT22;1295;51.130;6.732;2022-08-01T13:49:29;25.70;99.90
2571;DHT22;1295;51.130;6.732;2022-08-01T13:51:54;25.70;99.90
2571;DHT22;1295;51.130;6.732;2022-08-01T13:54:20;25.90;99.90
2571;DHT22;1295;51.130;6.732;2022-08-01T13:56:46;26.10;99.90
2571;DHT22;1295;51.130;6.732;2022-08-01T13:59:12;26.00;99.90
2571;DHT22;1295;51.130;6.732;2022-08-01T14:01:37;26.00;99.90
2571;DHT22;1295;51.130;6.732;2022-08-01T14:04:03;26.00;99.90
2571;DHT22;1295;51.130;6.732;2022-08-01T14:06:29;26.00;99.90
2571;DHT22;1295;51.130;6.732;2022-08-01T14:08:54;26.10;99.90
2571;DHT22;1295;51.130;6.732;2022-08-01T14:11:20;26.10;99.90
2571;DHT22;1295;51.130;6.732;2022-08-01T14:13:46;26.00;99.90
2571;DHT22;1295;51.130;6.732;2022-08-01T14:16:11;26.00;99.90
2571;DHT22;1295;51.130;6.732;2022-08-01T14:18:37;26.00;99.90
2571;DHT22;1295;51.130;6.732;2022-08-01T14:21:04;26.20;99.90
2571;DHT22;1295;51.130;6.732;2022-08-01T14:23:29;26.10;99.90
2571;DHT22;1295;51.130;6.732;2022-08-01T14:25:55;26.10;99.90
2571;DHT22;1295;51.130;6.732;2022-08-01T14:28:21;26.00;99.90
2571;DHT22;1295;51.130;6.732;2022-08-01T14:30:47;26.00;99.90
2571;DHT22;1295;51.130;6.732;2022-08-01T14:33:13;26.20;99.90
2571;DHT22;1295;51.130;6.732;2022-08-01T14:35:39;26.10;99.90
2571;DHT22;1295;51.130;6.732;2022-08-01T14:38:05;26.00;99.90
2571;DHT22;1295;51.130;6.732;2022-08-01T14:40:31;26.00;99.90
2571;DHT22;1295;51.130;6.732;2022-08-01T14:42:56;26.10;99.90
2571;DHT22;1295;51.130;6.732;2022-08-01T14:45:22;26.10;99.90
2571;DHT22;1295;51.130;6.732;2022-08-01T14:47:48;26.10;99.90
2571;DHT22;1295;51.130;6.732;2022-08-01T14:50:14;26.20;99.90
2571;DHT22;1295;51.130;6.732;2022-08-01T14:52:40;26.10;99.90
2571;DHT22;1295;51.130;6.732;2022-08-01T14:55:07;26.20;99.90
2571;DHT22;1295;51.130;6.732;2022-08-01T14:57:33;26.20;99.90
2571;DHT22;1295;51.130;6.732;2022-08-01T14:59:58;26.20;99.90
2571;DHT22;1295;51.130;6.732;2022-08-01T15:02:24;26.20;99.90
2571;DHT22;1295;51.130;6.732;2022-08-01T15:04:50;26.20;99.90
2571;DHT22;1295;51.130;6.732;2022-08-01T15:07:16;26.10;99.90
2571;DHT22;1295;51.130;6.732;2022-08-01T15:09:41;26.10;99.90
2571;DHT22;1295;51.130;6.732;2022-08-01T15:12:08;26.10;99.90
2571;DHT22;1295;51.130;6.732;2022-08-01T15:14:34;26.20;99.90
2571;DHT22;1295;51.130;6.732;2022-08-01T15:17:05;26.20;99.90
2571;DHT22;1295;51.130;6.732;2022-08-01T15:19:32;26.40;99.90
2571;DHT22;1295;51.130;6.732;2022-08-01T15:21:57;26.40;99.90
2571;DHT22;1295;51.130;6.732;2022-08-01T15:24:23;26.40;99.90
2571;DHT22;1295;51.130;6.732;2022-08-01T15:26:49;26.40;99.90
2571;DHT22;1295;51.130;6.732;2022-08-01T15:29:14;26.50;99.90
2571;DHT22;1295;51.130;6.732;2022-08-01T15:31:40;26.60;99.90
2571;DHT22;1295;51.130;6.732;2022-08-01T15:34:06;26.50;99.90
2571;DHT22;1295;51.130;6.732;2022-08-01T15:36:32;26.40;99.90
2571;DHT22;1295;51.130;6.732;2022-08-01T15:38:58;26.40;99.90
2571;DHT22;1295;51.130;6.732;2022-08-01T15:41:24;26.30;99.90
2571;DHT22;1295;51.130;6.732;2022-08-01T15:43:56;26.30;99.90
2571;DHT22;1295;51.130;6.732;2022-08-01T15:46:22;26.30;99.90
2571;DHT22;1295;51.130;6.732;2022-08-01T15:48:47;26.30;99.90
2571;DHT22;1295;51.130;6.732;2022-08-01T15:51:13;26.20;99.90
2571;DHT22;1295;51.130;6.732;2022-08-01T15:53:39;26.20;99.90
2571;DHT22;1295;51.130;6.732;2022-08-01T15:56:04;26.30;99.90
2571;DHT22;1295;51.130;6.732;2022-08-01T15:58:30;26.30;99.90
2571;DHT22;1295;51.130;6.732;2022-08-01T16:00:56;26.30;99.90
2571;DHT22;1295;51.130;6.732;2022-08-01T16:03:21;26.30;99.90
2571;DHT22;1295;51.130;6.732;2022-08-01T16:05:47;26.30;99.90
2571;DHT22;1295;51.130;6.732;2022-08-01T16:08:13;26.30;99.90
2571;DHT22;1295;51.130;6.732;2022-08-01T16:10:38;26.20;99.90
2571;DHT22;1295;51.130;6.732;2022-08-01T16:13:04;26.20;99.90